Viento Desde: 04-12-2020 07:00 Hasta: 13:59 Advertencia para: Viento Nivel: Amarillo
Situación metereológica potencialmente peligrosa.
info button

Informes METAR

 

KSJC - San Jose, California, USA
Distancia de la estación: NE 14km
Actualización: 04/12/2020 08:53
Parcialmente nuboso
Parcialmente nuboso
 Viento de calm
Viento: Calma
Temperatura: 8°C
Rocío: 3°C
Humedad: 71%
Barómetro: 1026.4 hPa
Nubes: Parcialmente nuboso
Visibilidad: 14 km
Detalles de las nubes: Parcialmente nuboso 4572 m
2020/12/04 07:53 KSJC 040753Z 00000KT 9SM SCT150 08/03 A3031 RMK AO2 SLP263 LAST T00830033 401830044
KNUQ - Moffett Nas/Mtn, California, USA
Distancia de la estación: N 14km
Actualización: 15/11/2020 11:00
NOT Current
Despejado
Despejado
 Viento de calm
Viento: Calma
Temperatura: 6°C
Rocío: 5°C
Humedad: 93%
Barómetro: 1025.4 hPa
Nubes: Despejado
Visibilidad: 16 km
2020/11/15 10:00 KNUQ 151000Z AUTO 00000KT 10SM CLR 06/05 A3028 RMK AO2
 
KPAO - Palo Alto, California, USA
Distancia de la estación: NNO 23km
Actualización: 04/12/2020 00:47
NOT Current
Muy nuboso
Muy nuboso
 Viento de calm
Viento: Calma
Temperatura: 14°C
Rocío: 8°C
Humedad: 67%
Barómetro: 1024 hPa
Nubes: Muy nuboso
Visibilidad: 16 km
Detalles de las nubes: Muy nuboso 6096 m
2020/12/03 23:47 KPAO 032347Z 00000KT 10SM BKN200 14/08 A3024
KRHV - San Jose/Reid, California, USA
Distancia de la estación: ENE 19km
Actualización: 04/12/2020 06:50
NOT Current
Muy nuboso
Muy nuboso
 Viento de variable
Viento: variable 6 km/h
Temperatura: 9°C
Rocío: 4°C
Humedad: 71%
Barómetro: 1027.1 hPa
Nubes: Muy nuboso
Visibilidad: 16 km
Detalles de las nubes: Muy nuboso 4572 m
2020/12/04 05:50 KRHV 040550Z VRB03KT 10SM BKN150 09/04 A3033 RMK LAST
 
KOAK - Oakland, California, USA
Distancia de la estación: NNO 50km
Actualización: 04/12/2020 08:53
Parcialmente nuboso
Parcialmente nuboso
 Viento de calm
Viento: Calma
Temperatura: 8°C
Rocío: 3°C
Humedad: 71%
Barómetro: 1026.8 hPa
Nubes: Parcialmente nuboso
Visibilidad: 11 km
Detalles de las nubes: Parcialmente nuboso 6096 m
2020/12/04 07:53 KOAK 040753Z 00000KT 7SM SCT200 08/03 A3032 RMK AO2 SLP265 T00830033 401890056
KSQL - San Carlos Airpo, California, USA
Distancia de la estación: NO 34km
Actualización: 04/12/2020 09:15
Despejado
Despejado
 Viento de calm
Viento: Calma
Temperatura: 8°C
Rocío: 4°C
Humedad: 76%
Barómetro: 1026.8 hPa
Nubes: Despejado
Visibilidad: 16 km
2020/12/04 08:15 KSQL 040815Z AUTO 00000KT 10SM CLR 08/04 A3032 RMK AO2
 
KSFO - San Francisco, California, USA
Distancia de la estación: NO 49km
Actualización: 04/12/2020 08:56
Poco nuboso
Poco nuboso
 Viento de calm
Viento: Calma
Temperatura: 10°C
Rocío: 4°C
Humedad: 67%
Barómetro: 1026.4 hPa
Nubes: Poco nuboso
Visibilidad: 16 km
Detalles de las nubes: Poco nuboso 4572 m
2020/12/04 07:56 KSFO 040756Z 00000KT 10SM FEW150 10/04 A3031 RMK AO2 SLP262 T01000044 401610083
KE16 - San Martin, California, USA
Distancia de la estación: ESE 43km
Actualización: 04/12/2020 09:15
Parcialmente nuboso
Parcialmente nuboso
 Viento de calm
Viento: Calma
Temperatura: 6°C
Rocío: 3°C
Humedad: 81%
Barómetro: 1027.1 hPa
Nubes: Parcialmente nuboso
Visibilidad: 16 km
Detalles de las nubes: Parcialmente nuboso 518 m
2020/12/04 08:15 KE16 040815Z AUTO 00000KT 10SM SCT017 06/03 A3033 RMK AO2
 
KWVI - Watsonville, California, USA
Distancia de la estación: SSE 44km
Actualización: 04/12/2020 08:53
Despejado
Despejado
 Viento de NNO
Viento: NNO 6 km/h
Temperatura: 7°C
Rocío: 4°C
Humedad: 81%
Barómetro: 1026.1 hPa
Nubes: Despejado
Visibilidad: 16 km
2020/12/04 07:53 KWVI 040753Z AUTO 34003KT 10SM CLR 07/04 A3030 RMK AO2 SLP261 T00720039 401890039
KHAF - Half Moon Bay, California, USA
Distancia de la estación: ONO 50km
Actualización: 04/12/2020 09:15
Muy nuboso
Muy nuboso
 Viento de calm
Viento: Calma
Temperatura: 5°C
Rocío: 2°C
Humedad: 81%
Barómetro: 1026.1 hPa
Nubes: Muy nuboso
Visibilidad: 14 km
Detalles de las nubes: Muy nuboso 61 m
2020/12/04 08:15 KHAF 040815Z AUTO 00000KT 9SM BKN002 05/02 A3030 RMK AO2
 
KHWD - Hayward, California, USA
Distancia de la estación: N 44km
Actualización: 04/12/2020 08:54
Despejado
Despejado
 Viento de ENE
Viento: ENE 7 km/h
Temperatura: 9°C
Sensación térmica: 8°C
Rocío: 2°C
Humedad: 62%
Barómetro: 1026.4 hPa
Nubes: Despejado
Visibilidad: 14 km
2020/12/04 07:54 KHWD 040754Z AUTO 07004KT 9SM CLR 09/02 A3031 RMK AO2 SLP272 T00940022 401830061
KLVK - Livermore, California, USA
Distancia de la estación: NNE 51km
Actualización: 04/12/2020 08:53
Despejado
Despejado
 Viento de calm
Viento: Calma
Temperatura: 6°C
Rocío: 1°C
Humedad: 71%
Barómetro: 1026.4 hPa
Nubes: Despejado
Visibilidad: 13 km
2020/12/04 07:53 KLVK 040753Z AUTO 00000KT 8SM CLR 06/01 A3031 RMK AO2 SLP264 T00560006 401940022